sensor_id;sensor_type;location;lat;lon;timestamp;P1;durP1;ratioP1;P2;durP2;ratioP2
35699;SDS011;21818;51.078;12.108;2022-07-12T00:01:28;0.75;;;0.30;;
35699;SDS011;21818;51.078;12.108;2022-07-12T00:03:54;0.60;;;0.40;;
35699;SDS011;21818;51.078;12.108;2022-07-12T00:06:19;1.55;;;0.38;;
35699;SDS011;21818;51.078;12.108;2022-07-12T00:08:45;0.28;;;0.28;;
35699;SDS011;21818;51.078;12.108;2022-07-12T00:11:10;1.38;;;0.30;;
35699;SDS011;21818;51.078;12.108;2022-07-12T00:13:36;0.60;;;0.30;;
35699;SDS011;21818;51.078;12.108;2022-07-12T00:16:02;0.52;;;0.30;;
35699;SDS011;21818;51.078;12.108;2022-07-12T00:18:28;0.80;;;0.35;;
35699;SDS011;21818;51.078;12.108;2022-07-12T00:20:53;2.15;;;0.30;;
35699;SDS011;21818;51.078;12.108;2022-07-12T00:23:19;0.77;;;0.43;;
35699;SDS011;21818;51.078;12.108;2022-07-12T00:25:44;4.68;;;1.48;;
35699;SDS011;21818;51.078;12.108;2022-07-12T00:28:10;0.30;;;0.25;;
35699;SDS011;21818;51.078;12.108;2022-07-12T00:30:36;0.93;;;0.40;;
35699;SDS011;21818;51.078;12.108;2022-07-12T00:33:01;0.30;;;0.30;;
35699;SDS011;21818;51.078;12.108;2022-07-12T00:35:27;0.57;;;0.40;;
35699;SDS011;21818;51.078;12.108;2022-07-12T00:37:53;0.73;;;0.30;;
35699;SDS011;21818;51.078;12.108;2022-07-12T00:40:18;0.60;;;0.30;;
35699;SDS011;21818;51.078;12.108;2022-07-12T00:42:44;0.28;;;0.20;;
35699;SDS011;21818;51.078;12.108;2022-07-12T00:45:09;0.68;;;0.40;;
35699;SDS011;21818;51.078;12.108;2022-07-12T00:47:36;1.13;;;0.50;;
35699;SDS011;21818;51.078;12.108;2022-07-12T00:50:19;1.17;;;0.45;;
35699;SDS011;21818;51.078;12.108;2022-07-12T00:52:47;0.98;;;0.40;;
35699;SDS011;21818;51.078;12.108;2022-07-12T00:55:14;0.32;;;0.32;;
35699;SDS011;21818;51.078;12.108;2022-07-12T00:57:42;1.88;;;0.28;;
35699;SDS011;21818;51.078;12.108;2022-07-12T01:00:08;2.13;;;0.50;;
35699;SDS011;21818;51.078;12.108;2022-07-12T01:02:37;0.90;;;0.50;;
35699;SDS011;21818;51.078;12.108;2022-07-12T01:05:03;0.88;;;0.60;;
35699;SDS011;21818;51.078;12.108;2022-07-12T01:07:31;1.38;;;0.50;;
35699;SDS011;21818;51.078;12.108;2022-07-12T01:09:58;1.05;;;0.45;;
35699;SDS011;21818;51.078;12.108;2022-07-12T01:12:24;0.85;;;0.40;;
35699;SDS011;21818;51.078;12.108;2022-07-12T01:14:50;0.30;;;0.30;;
35699;SDS011;21818;51.078;12.108;2022-07-12T01:17:18;0.52;;;0.43;;
35699;SDS011;21818;51.078;12.108;2022-07-12T01:19:46;0.30;;;0.30;;
35699;SDS011;21818;51.078;12.108;2022-07-12T01:22:13;0.32;;;0.32;;
35699;SDS011;21818;51.078;12.108;2022-07-12T01:24:40;0.55;;;0.50;;
35699;SDS011;21818;51.078;12.108;2022-07-12T01:27:06;0.70;;;0.60;;
35699;SDS011;21818;51.078;12.108;2022-07-12T01:29:32;0.30;;;0.30;;
35699;SDS011;21818;51.078;12.108;2022-07-12T01:32:02;0.80;;;0.55;;
35699;SDS011;21818;51.078;12.108;2022-07-12T01:34:47;0.68;;;0.40;;
35699;SDS011;21818;51.078;12.108;2022-07-12T01:37:14;0.57;;;0.45;;
35699;SDS011;21818;51.078;12.108;2022-07-12T01:39:42;4.30;;;0.60;;
35699;SDS011;21818;51.078;12.108;2022-07-12T01:42:08;1.00;;;0.90;;
35699;SDS011;21818;51.078;12.108;2022-07-12T01:44:34;0.77;;;0.60;;
35699;SDS011;21818;51.078;12.108;2022-07-12T01:46:59;0.85;;;0.32;;
35699;SDS011;21818;51.078;12.108;2022-07-12T01:49:25;0.93;;;0.43;;
35699;SDS011;21818;51.078;12.108;2022-07-12T01:51:50;0.80;;;0.50;;
35699;SDS011;21818;51.078;12.108;2022-07-12T01:54:16;0.93;;;0.47;;
35699;SDS011;21818;51.078;12.108;2022-07-12T01:56:42;0.75;;;0.68;;
35699;SDS011;21818;51.078;12.108;2022-07-12T01:59:08;0.50;;;0.50;;
35699;SDS011;21818;51.078;12.108;2022-07-12T02:01:34;2.80;;;0.73;;
35699;SDS011;21818;51.078;12.108;2022-07-12T02:04:02;0.52;;;0.50;;
35699;SDS011;21818;51.078;12.108;2022-07-12T02:06:28;1.20;;;0.50;;
35699;SDS011;21818;51.078;12.108;2022-07-12T02:08:55;0.85;;;0.52;;
35699;SDS011;21818;51.078;12.108;2022-07-12T02:11:21;1.10;;;0.80;;
35699;SDS011;21818;51.078;12.108;2022-07-12T02:13:46;0.93;;;0.73;;
35699;SDS011;21818;51.078;12.108;2022-07-12T02:16:12;0.82;;;0.60;;
35699;SDS011;21818;51.078;12.108;2022-07-12T02:18:37;1.70;;;0.70;;
35699;SDS011;21818;51.078;12.108;2022-07-12T02:21:03;1.58;;;0.70;;
35699;SDS011;21818;51.078;12.108;2022-07-12T02:23:28;1.02;;;0.80;;
35699;SDS011;21818;51.078;12.108;2022-07-12T02:25:54;0.80;;;0.63;;
35699;SDS011;21818;51.078;12.108;2022-07-12T02:28:20;0.52;;;0.50;;
35699;SDS011;21818;51.078;12.108;2022-07-12T02:30:45;1.88;;;0.82;;
35699;SDS011;21818;51.078;12.108;2022-07-12T02:33:11;0.95;;;0.65;;
35699;SDS011;21818;51.078;12.108;2022-07-12T02:35:40;3.72;;;1.73;;
35699;SDS011;21818;51.078;12.108;2022-07-12T02:38:06;1.02;;;0.90;;
35699;SDS011;21818;51.078;12.108;2022-07-12T02:40:32;0.95;;;0.80;;
35699;SDS011;21818;51.078;12.108;2022-07-12T02:43:16;1.30;;;0.70;;
35699;SDS011;21818;51.078;12.108;2022-07-12T02:45:42;1.92;;;0.82;;
35699;SDS011;21818;51.078;12.108;2022-07-12T02:48:07;1.20;;;0.73;;
35699;SDS011;21818;51.078;12.108;2022-07-12T02:50:35;0.70;;;0.68;;
35699;SDS011;21818;51.078;12.108;2022-07-12T02:53:02;1.85;;;0.82;;
35699;SDS011;21818;51.078;12.108;2022-07-12T02:55:28;1.00;;;0.90;;
35699;SDS011;21818;51.078;12.108;2022-07-12T02:57:54;1.92;;;0.95;;
35699;SDS011;21818;51.078;12.108;2022-07-12T03:00:19;0.85;;;0.82;;
35699;SDS011;21818;51.078;12.108;2022-07-12T03:02:45;2.03;;;0.88;;
35699;SDS011;21818;51.078;12.108;2022-07-12T03:05:10;1.40;;;1.10;;
35699;SDS011;21818;51.078;12.108;2022-07-12T03:07:36;1.02;;;0.80;;
35699;SDS011;21818;51.078;12.108;2022-07-12T03:10:02;1.00;;;0.70;;
35699;SDS011;21818;51.078;12.108;2022-07-12T03:12:29;3.65;;;1.00;;
35699;SDS011;21818;51.078;12.108;2022-07-12T03:14:54;1.20;;;1.10;;
35699;SDS011;21818;51.078;12.108;2022-07-12T03:17:20;1.20;;;0.90;;
35699;SDS011;21818;51.078;12.108;2022-07-12T03:19:46;0.82;;;0.80;;
35699;SDS011;21818;51.078;12.108;2022-07-12T03:22:11;2.38;;;1.10;;
35699;SDS011;21818;51.078;12.108;2022-07-12T03:24:37;1.30;;;1.05;;
35699;SDS011;21818;51.078;12.108;2022-07-12T03:27:03;2.08;;;0.98;;
35699;SDS011;21818;51.078;12.108;2022-07-12T03:29:28;1.40;;;1.05;;
35699;SDS011;21818;51.078;12.108;2022-07-12T03:31:54;2.15;;;1.23;;
35699;SDS011;21818;51.078;12.108;2022-07-12T03:34:19;1.65;;;1.25;;
35699;SDS011;21818;51.078;12.108;2022-07-12T03:36:45;1.38;;;1.13;;
35699;SDS011;21818;51.078;12.108;2022-07-12T03:39:11;1.33;;;1.00;;
35699;SDS011;21818;51.078;12.108;2022-07-12T03:41:36;2.35;;;1.10;;
35699;SDS011;21818;51.078;12.108;2022-07-12T03:44:02;1.80;;;1.20;;
35699;SDS011;21818;51.078;12.108;2022-07-12T03:46:28;1.67;;;0.88;;
35699;SDS011;21818;51.078;12.108;2022-07-12T03:48:54;1.23;;;0.98;;
35699;SDS011;21818;51.078;12.108;2022-07-12T03:51:20;1.30;;;1.20;;
35699;SDS011;21818;51.078;12.108;2022-07-12T03:53:45;1.15;;;0.80;;
35699;SDS011;21818;51.078;12.108;2022-07-12T03:56:11;1.20;;;1.10;;
35699;SDS011;21818;51.078;12.108;2022-07-12T03:58:56;1.25;;;0.93;;
35699;SDS011;21818;51.078;12.108;2022-07-12T04:01:22;1.17;;;1.08;;
35699;SDS011;21818;51.078;12.108;2022-07-12T04:03:48;1.42;;;1.10;;
35699;SDS011;21818;51.078;12.108;2022-07-12T04:06:13;1.30;;;1.02;;
35699;SDS011;21818;51.078;12.108;2022-07-12T04:08:39;1.38;;;1.10;;
35699;SDS011;21818;51.078;12.108;2022-07-12T04:11:05;2.05;;;1.33;;
35699;SDS011;21818;51.078;12.108;2022-07-12T04:13:30;1.90;;;1.30;;
35699;SDS011;21818;51.078;12.108;2022-07-12T04:15:57;2.15;;;1.33;;
35699;SDS011;21818;51.078;12.108;2022-07-12T04:18:23;3.10;;;1.30;;
35699;SDS011;21818;51.078;12.108;2022-07-12T04:20:49;3.15;;;1.30;;
35699;SDS011;21818;51.078;12.108;2022-07-12T04:23:15;1.42;;;1.25;;
35699;SDS011;21818;51.078;12.108;2022-07-12T04:25:40;1.95;;;1.30;;
35699;SDS011;21818;51.078;12.108;2022-07-12T04:28:06;1.73;;;1.05;;
35699;SDS011;21818;51.078;12.108;2022-07-12T04:30:31;1.77;;;1.30;;
35699;SDS011;21818;51.078;12.108;2022-07-12T04:32:57;2.50;;;1.38;;
35699;SDS011;21818;51.078;12.108;2022-07-12T04:35:22;2.85;;;1.30;;
35699;SDS011;21818;51.078;12.108;2022-07-12T04:37:48;1.83;;;1.42;;
35699;SDS011;21818;51.078;12.108;2022-07-12T04:40:14;1.50;;;1.00;;
35699;SDS011;21818;51.078;12.108;2022-07-12T04:42:39;1.60;;;1.08;;
35699;SDS011;21818;51.078;12.108;2022-07-12T04:45:05;3.38;;;1.63;;
35699;SDS011;21818;51.078;12.108;2022-07-12T04:47:31;1.23;;;1.10;;
35699;SDS011;21818;51.078;12.108;2022-07-12T04:49:59;1.60;;;1.13;;
35699;SDS011;21818;51.078;12.108;2022-07-12T04:52:27;2.58;;;1.45;;
35699;SDS011;21818;51.078;12.108;2022-07-12T04:54:53;2.10;;;1.33;;
35699;SDS011;21818;51.078;12.108;2022-07-12T04:57:18;1.83;;;1.25;;
35699;SDS011;21818;51.078;12.108;2022-07-12T04:59:44;1.90;;;1.27;;
35699;SDS011;21818;51.078;12.108;2022-07-12T05:02:09;1.80;;;1.20;;
35699;SDS011;21818;51.078;12.108;2022-07-12T05:04:35;2.78;;;1.30;;
35699;SDS011;21818;51.078;12.108;2022-07-12T05:07:00;2.30;;;1.30;;
35699;SDS011;21818;51.078;12.108;2022-07-12T05:09:26;2.40;;;1.73;;
35699;SDS011;21818;51.078;12.108;2022-07-12T05:11:51;3.22;;;1.42;;
35699;SDS011;21818;51.078;12.108;2022-07-12T05:14:17;5.90;;;1.60;;
35699;SDS011;21818;51.078;12.108;2022-07-12T05:16:42;2.55;;;1.38;;
35699;SDS011;21818;51.078;12.108;2022-07-12T05:19:08;3.80;;;1.45;;
35699;SDS011;21818;51.078;12.108;2022-07-12T05:21:33;1.77;;;1.33;;
35699;SDS011;21818;51.078;12.108;2022-07-12T05:23:59;6.35;;;1.55;;
35699;SDS011;21818;51.078;12.108;2022-07-12T05:26:28;2.25;;;1.48;;
35699;SDS011;21818;51.078;12.108;2022-07-12T05:28:53;4.55;;;1.65;;
35699;SDS011;21818;51.078;12.108;2022-07-12T05:31:19;1.85;;;1.48;;
35699;SDS011;21818;51.078;12.108;2022-07-12T05:33:45;4.82;;;1.40;;
35699;SDS011;21818;51.078;12.108;2022-07-12T05:36:10;2.70;;;1.55;;
35699;SDS011;21818;51.078;12.108;2022-07-12T05:38:36;1.67;;;1.13;;
35699;SDS011;21818;51.078;12.108;2022-07-12T05:41:01;1.70;;;1.02;;
35699;SDS011;21818;51.078;12.108;2022-07-12T05:43:27;1.83;;;1.20;;
35699;SDS011;21818;51.078;12.108;2022-07-12T05:45:52;3.53;;;1.80;;
35699;SDS011;21818;51.078;12.108;2022-07-12T05:48:18;2.53;;;1.63;;
35699;SDS011;21818;51.078;12.108;2022-07-12T05:50:44;5.53;;;1.20;;
35699;SDS011;21818;51.078;12.108;2022-07-12T05:53:09;2.88;;;1.50;;
35699;SDS011;21818;51.078;12.108;2022-07-12T05:55:50;2.78;;;1.38;;
35699;SDS011;21818;51.078;12.108;2022-07-12T05:58:17;3.15;;;1.50;;
35699;SDS011;21818;51.078;12.108;2022-07-12T06:00:44;2.90;;;1.67;;
35699;SDS011;21818;51.078;12.108;2022-07-12T06:03:10;3.05;;;1.30;;
35699;SDS011;21818;51.078;12.108;2022-07-12T06:05:36;1.75;;;1.23;;
35699;SDS011;21818;51.078;12.108;2022-07-12T06:08:02;2.85;;;1.30;;
35699;SDS011;21818;51.078;12.108;2022-07-12T06:10:28;3.03;;;1.50;;
35699;SDS011;21818;51.078;12.108;2022-07-12T06:12:54;2.58;;;1.25;;
35699;SDS011;21818;51.078;12.108;2022-07-12T06:15:19;8.48;;;1.13;;
35699;SDS011;21818;51.078;12.108;2022-07-12T06:17:45;5.82;;;1.33;;
35699;SDS011;21818;51.078;12.108;2022-07-12T06:20:10;10.82;;;1.45;;
35699;SDS011;21818;51.078;12.108;2022-07-12T06:22:36;2.53;;;1.08;;
35699;SDS011;21818;51.078;12.108;2022-07-12T06:25:02;3.08;;;0.80;;
35699;SDS011;21818;51.078;12.108;2022-07-12T06:27:28;4.43;;;1.08;;
35699;SDS011;21818;51.078;12.108;2022-07-12T06:29:53;3.05;;;0.90;;
35699;SDS011;21818;51.078;12.108;2022-07-12T06:32:19;1.60;;;0.88;;
35699;SDS011;21818;51.078;12.108;2022-07-12T06:34:44;3.45;;;1.05;;
35699;SDS011;21818;51.078;12.108;2022-07-12T06:37:10;1.73;;;0.93;;
35699;SDS011;21818;51.078;12.108;2022-07-12T06:39:37;1.38;;;0.73;;
35699;SDS011;21818;51.078;12.108;2022-07-12T06:42:03;1.35;;;0.88;;
35699;SDS011;21818;51.078;12.108;2022-07-12T06:44:32;1.52;;;0.50;;
35699;SDS011;21818;51.078;12.108;2022-07-12T06:46:58;1.58;;;0.60;;
35699;SDS011;21818;51.078;12.108;2022-07-12T06:49:25;3.63;;;1.05;;
35699;SDS011;21818;51.078;12.108;2022-07-12T06:51:51;3.15;;;0.80;;
35699;SDS011;21818;51.078;12.108;2022-07-12T06:54:17;1.35;;;0.68;;
35699;SDS011;21818;51.078;12.108;2022-07-12T06:56:42;2.47;;;0.93;;
35699;SDS011;21818;51.078;12.108;2022-07-12T06:59:08;2.53;;;0.90;;
35699;SDS011;21818;51.078;12.108;2022-07-12T07:01:37;3.30;;;0.90;;
35699;SDS011;21818;51.078;12.108;2022-07-12T07:04:03;5.25;;;0.90;;
35699;SDS011;21818;51.078;12.108;2022-07-12T07:06:29;1.85;;;0.93;;
35699;SDS011;21818;51.078;12.108;2022-07-12T07:08:54;2.20;;;0.88;;
35699;SDS011;21818;51.078;12.108;2022-07-12T07:11:20;1.35;;;0.85;;
35699;SDS011;21818;51.078;12.108;2022-07-12T07:13:46;1.67;;;0.80;;
35699;SDS011;21818;51.078;12.108;2022-07-12T07:16:11;2.10;;;0.80;;
35699;SDS011;21818;51.078;12.108;2022-07-12T07:18:38;1.75;;;0.73;;
35699;SDS011;21818;51.078;12.108;2022-07-12T07:21:04;2.35;;;1.00;;
35699;SDS011;21818;51.078;12.108;2022-07-12T07:23:30;2.83;;;0.80;;
35699;SDS011;21818;51.078;12.108;2022-07-12T07:25:56;1.52;;;0.60;;
35699;SDS011;21818;51.078;12.108;2022-07-12T07:28:21;1.80;;;1.00;;
35699;SDS011;21818;51.078;12.108;2022-07-12T07:30:47;1.00;;;0.70;;
35699;SDS011;21818;51.078;12.108;2022-07-12T07:33:22;1.88;;;0.98;;
35699;SDS011;21818;51.078;12.108;2022-07-12T07:35:49;1.98;;;0.70;;
35699;SDS011;21818;51.078;12.108;2022-07-12T07:38:17;1.20;;;0.60;;
35699;SDS011;21818;51.078;12.108;2022-07-12T07:40:44;2.28;;;0.88;;
35699;SDS011;21818;51.078;12.108;2022-07-12T07:43:10;1.63;;;0.80;;
35699;SDS011;21818;51.078;12.108;2022-07-12T07:45:35;0.80;;;0.60;;
35699;SDS011;21818;51.078;12.108;2022-07-12T07:48:01;1.27;;;0.73;;
35699;SDS011;21818;51.078;12.108;2022-07-12T07:50:27;2.10;;;0.60;;
35699;SDS011;21818;51.078;12.108;2022-07-12T07:52:54;1.25;;;0.80;;
35699;SDS011;21818;51.078;12.108;2022-07-12T07:55:20;1.70;;;0.68;;
35699;SDS011;21818;51.078;12.108;2022-07-12T07:57:46;1.42;;;0.80;;
35699;SDS011;21818;51.078;12.108;2022-07-12T08:00:12;0.85;;;0.60;;
35699;SDS011;21818;51.078;12.108;2022-07-12T08:02:39;2.42;;;0.70;;
35699;SDS011;21818;51.078;12.108;2022-07-12T08:05:06;1.20;;;0.73;;
35699;SDS011;21818;51.078;12.108;2022-07-12T08:07:31;1.30;;;0.70;;
35699;SDS011;21818;51.078;12.108;2022-07-12T08:09:57;1.75;;;0.70;;
35699;SDS011;21818;51.078;12.108;2022-07-12T08:12:22;0.82;;;0.75;;
35699;SDS011;21818;51.078;12.108;2022-07-12T08:14:48;2.05;;;0.80;;
35699;SDS011;21818;51.078;12.108;2022-07-12T08:17:14;1.35;;;0.88;;
35699;SDS011;21818;51.078;12.108;2022-07-12T08:19:39;2.72;;;0.88;;
35699;SDS011;21818;51.078;12.108;2022-07-12T08:22:05;0.90;;;0.77;;
35699;SDS011;21818;51.078;12.108;2022-07-12T08:24:30;1.92;;;0.90;;
35699;SDS011;21818;51.078;12.108;2022-07-12T08:26:56;2.22;;;1.13;;
35699;SDS011;21818;51.078;12.108;2022-07-12T08:29:22;3.55;;;1.17;;
35699;SDS011;21818;51.078;12.108;2022-07-12T08:31:47;4.90;;;0.98;;
35699;SDS011;21818;51.078;12.108;2022-07-12T08:34:13;3.00;;;0.73;;
35699;SDS011;21818;51.078;12.108;2022-07-12T08:36:38;2.15;;;0.85;;
35699;SDS011;21818;51.078;12.108;2022-07-12T08:39:04;1.95;;;0.70;;
35699;SDS011;21818;51.078;12.108;2022-07-12T08:41:30;3.10;;;1.70;;
35699;SDS011;21818;51.078;12.108;2022-07-12T08:43:55;2.72;;;1.20;;
35699;SDS011;21818;51.078;12.108;2022-07-12T08:46:21;2.08;;;0.98;;
35699;SDS011;21818;51.078;12.108;2022-07-12T08:48:47;3.42;;;0.90;;
35699;SDS011;21818;51.078;12.108;2022-07-12T08:51:13;2.95;;;0.88;;
35699;SDS011;21818;51.078;12.108;2022-07-12T08:53:43;2.38;;;0.90;;
35699;SDS011;21818;51.078;12.108;2022-07-12T08:56:29;1.77;;;1.00;;
35699;SDS011;21818;51.078;12.108;2022-07-12T08:59:15;1.42;;;0.85;;
35699;SDS011;21818;51.078;12.108;2022-07-12T09:01:59;1.00;;;0.60;;
35699;SDS011;21818;51.078;12.108;2022-07-12T09:04:25;1.52;;;0.90;;
35699;SDS011;21818;51.078;12.108;2022-07-12T09:06:52;2.75;;;1.00;;
35699;SDS011;21818;51.078;12.108;2022-07-12T09:09:28;1.48;;;0.70;;
35699;SDS011;21818;51.078;12.108;2022-07-12T09:11:55;2.63;;;0.60;;
35699;SDS011;21818;51.078;12.108;2022-07-12T09:14:21;1.95;;;0.82;;
35699;SDS011;21818;51.078;12.108;2022-07-12T09:19:30;1.55;;;0.90;;
35699;SDS011;21818;51.078;12.108;2022-07-12T09:21:57;2.78;;;0.70;;
35699;SDS011;21818;51.078;12.108;2022-07-12T09:24:26;1.73;;;0.77;;
35699;SDS011;21818;51.078;12.108;2022-07-12T09:27:02;2.00;;;0.67;;
35699;SDS011;21818;51.078;12.108;2022-07-12T09:29:32;1.67;;;0.85;;
35699;SDS011;21818;51.078;12.108;2022-07-12T09:32:10;1.25;;;0.63;;
35699;SDS011;21818;51.078;12.108;2022-07-12T09:34:58;1.58;;;0.90;;
35699;SDS011;21818;51.078;12.108;2022-07-12T09:37:42;3.55;;;0.88;;
35699;SDS011;21818;51.078;12.108;2022-07-12T09:40:08;3.22;;;0.85;;
35699;SDS011;21818;51.078;12.108;2022-07-12T09:42:34;4.25;;;0.90;;
35699;SDS011;21818;51.078;12.108;2022-07-12T09:45:01;1.95;;;0.95;;
35699;SDS011;21818;51.078;12.108;2022-07-12T09:47:26;3.13;;;1.20;;
35699;SDS011;21818;51.078;12.108;2022-07-12T09:49:55;1.98;;;0.90;;
35699;SDS011;21818;51.078;12.108;2022-07-12T09:52:22;1.73;;;0.70;;
35699;SDS011;21818;51.078;12.108;2022-07-12T09:54:53;4.63;;;1.02;;
35699;SDS011;21818;51.078;12.108;2022-07-12T09:57:20;2.28;;;0.85;;
35699;SDS011;21818;51.078;12.108;2022-07-12T09:59:49;1.60;;;0.80;;
35699;SDS011;21818;51.078;12.108;2022-07-12T10:02:17;3.40;;;0.75;;
35699;SDS011;21818;51.078;12.108;2022-07-12T10:04:43;1.77;;;0.80;;
35699;SDS011;21818;51.078;12.108;2022-07-12T10:07:11;2.72;;;1.00;;
35699;SDS011;21818;51.078;12.108;2022-07-12T10:09:41;1.50;;;0.82;;
35699;SDS011;21818;51.078;12.108;2022-07-12T10:12:13;3.60;;;0.68;;
35699;SDS011;21818;51.078;12.108;2022-07-12T10:14:41;4.93;;;1.35;;
35699;SDS011;21818;51.078;12.108;2022-07-12T10:17:08;5.18;;;1.30;;
35699;SDS011;21818;51.078;12.108;2022-07-12T10:19:35;2.75;;;0.98;;
35699;SDS011;21818;51.078;12.108;2022-07-12T10:22:02;2.95;;;1.10;;
35699;SDS011;21818;51.078;12.108;2022-07-12T10:29:48;2.92;;;1.10;;
35699;SDS011;21818;51.078;12.108;2022-07-12T10:35:02;2.63;;;1.13;;
35699;SDS011;21818;51.078;12.108;2022-07-12T10:37:33;4.75;;;0.98;;
35699;SDS011;21818;51.078;12.108;2022-07-12T10:40:15;3.70;;;1.48;;
35699;SDS011;21818;51.078;12.108;2022-07-12T10:45:34;6.20;;;1.40;;
35699;SDS011;21818;51.078;12.108;2022-07-12T10:48:03;4.03;;;1.10;;
35699;SDS011;21818;51.078;12.108;2022-07-12T11:03:41;3.75;;;1.38;;
35699;SDS011;21818;51.078;12.108;2022-07-12T11:06:15;2.20;;;0.90;;
35699;SDS011;21818;51.078;12.108;2022-07-12T11:08:52;4.68;;;1.10;;
35699;SDS011;21818;51.078;12.108;2022-07-12T11:11:18;3.97;;;1.30;;
35699;SDS011;21818;51.078;12.108;2022-07-12T11:13:44;4.15;;;1.35;;
35699;SDS011;21818;51.078;12.108;2022-07-12T11:16:10;3.22;;;1.27;;
35699;SDS011;21818;51.078;12.108;2022-07-12T11:18:36;2.03;;;1.10;;
35699;SDS011;21818;51.078;12.108;2022-07-12T11:21:03;4.03;;;1.20;;
35699;SDS011;21818;51.078;12.108;2022-07-12T11:23:29;2.88;;;0.80;;
35699;SDS011;21818;51.078;12.108;2022-07-12T11:25:56;3.13;;;1.38;;
35699;SDS011;21818;51.078;12.108;2022-07-12T11:28:23;2.65;;;0.90;;
35699;SDS011;21818;51.078;12.108;2022-07-12T11:30:50;3.00;;;1.10;;
35699;SDS011;21818;51.078;12.108;2022-07-12T11:33:16;1.67;;;0.80;;
35699;SDS011;21818;51.078;12.108;2022-07-12T11:35:45;3.17;;;1.20;;
35699;SDS011;21818;51.078;12.108;2022-07-12T11:38:11;3.47;;;1.38;;
35699;SDS011;21818;51.078;12.108;2022-07-12T11:40:37;4.00;;;1.17;;
35699;SDS011;21818;51.078;12.108;2022-07-12T11:43:03;0.93;;;0.80;;
35699;SDS011;21818;51.078;12.108;2022-07-12T11:45:31;2.75;;;1.50;;
35699;SDS011;21818;51.078;12.108;2022-07-12T11:47:58;2.40;;;1.13;;
35699;SDS011;21818;51.078;12.108;2022-07-12T11:50:30;1.60;;;0.82;;
35699;SDS011;21818;51.078;12.108;2022-07-12T11:52:59;2.78;;;1.10;;
35699;SDS011;21818;51.078;12.108;2022-07-12T11:55:24;2.25;;;1.00;;
35699;SDS011;21818;51.078;12.108;2022-07-12T11:57:50;2.13;;;1.00;;
35699;SDS011;21818;51.078;12.108;2022-07-12T12:00:19;5.00;;;1.38;;
35699;SDS011;21818;51.078;12.108;2022-07-12T12:02:50;1.63;;;0.90;;
35699;SDS011;21818;51.078;12.108;2022-07-12T12:05:20;3.00;;;0.93;;
35699;SDS011;21818;51.078;12.108;2022-07-12T12:07:46;2.50;;;1.00;;
35699;SDS011;21818;51.078;12.108;2022-07-12T12:10:12;2.72;;;1.02;;
35699;SDS011;21818;51.078;12.108;2022-07-12T12:12:41;2.58;;;1.00;;
35699;SDS011;21818;51.078;12.108;2022-07-12T12:15:15;1.95;;;1.20;;
35699;SDS011;21818;51.078;12.108;2022-07-12T12:17:44;5.38;;;1.60;;
35699;SDS011;21818;51.078;12.108;2022-07-12T12:20:16;3.03;;;1.10;;
35699;SDS011;21818;51.078;12.108;2022-07-12T12:22:44;4.30;;;1.15;;
35699;SDS011;21818;51.078;12.108;2022-07-12T12:25:12;3.83;;;1.05;;
35699;SDS011;21818;51.078;12.108;2022-07-12T12:27:43;2.30;;;0.80;;
35699;SDS011;21818;51.078;12.108;2022-07-12T12:30:10;2.08;;;1.10;;
35699;SDS011;21818;51.078;12.108;2022-07-12T12:32:47;2.38;;;1.17;;
35699;SDS011;21818;51.078;12.108;2022-07-12T12:35:15;2.88;;;1.25;;
35699;SDS011;21818;51.078;12.108;2022-07-12T12:37:48;2.10;;;0.95;;
35699;SDS011;21818;51.078;12.108;2022-07-12T12:40:18;1.98;;;1.10;;
35699;SDS011;21818;51.078;12.108;2022-07-12T12:42:45;2.63;;;1.17;;
35699;SDS011;21818;51.078;12.108;2022-07-12T12:45:18;1.73;;;0.82;;
35699;SDS011;21818;51.078;12.108;2022-07-12T12:47:53;1.98;;;0.77;;
35699;SDS011;21818;51.078;12.108;2022-07-12T12:50:39;1.80;;;0.70;;
35699;SDS011;21818;51.078;12.108;2022-07-12T12:53:15;2.20;;;1.20;;
35699;SDS011;21818;51.078;12.108;2022-07-12T12:55:46;2.22;;;0.95;;
35699;SDS011;21818;51.078;12.108;2022-07-12T12:58:14;1.85;;;0.88;;
35699;SDS011;21818;51.078;12.108;2022-07-12T13:00:41;2.72;;;1.00;;
35699;SDS011;21818;51.078;12.108;2022-07-12T13:03:09;2.30;;;1.08;;
35699;SDS011;21818;51.078;12.108;2022-07-12T13:05:37;2.88;;;1.05;;
35699;SDS011;21818;51.078;12.108;2022-07-12T13:08:03;2.22;;;1.00;;
35699;SDS011;21818;51.078;12.108;2022-07-12T13:10:30;2.03;;;1.00;;
35699;SDS011;21818;51.078;12.108;2022-07-12T13:12:56;4.45;;;1.15;;
35699;SDS011;21818;51.078;12.108;2022-07-12T13:15:23;2.33;;;1.20;;
35699;SDS011;21818;51.078;12.108;2022-07-12T13:17:48;1.95;;;0.90;;
35699;SDS011;21818;51.078;12.108;2022-07-12T13:20:14;2.65;;;1.08;;
35699;SDS011;21818;51.078;12.108;2022-07-12T13:22:40;2.00;;;0.80;;
35699;SDS011;21818;51.078;12.108;2022-07-12T13:25:08;1.88;;;0.98;;
35699;SDS011;21818;51.078;12.108;2022-07-12T13:27:35;4.30;;;1.85;;
35699;SDS011;21818;51.078;12.108;2022-07-12T13:30:01;3.40;;;1.15;;
35699;SDS011;21818;51.078;12.108;2022-07-12T13:32:27;2.38;;;1.05;;
35699;SDS011;21818;51.078;12.108;2022-07-12T13:34:52;2.33;;;1.00;;
35699;SDS011;21818;51.078;12.108;2022-07-12T13:37:18;1.67;;;0.90;;
35699;SDS011;21818;51.078;12.108;2022-07-12T13:39:43;4.47;;;0.95;;
35699;SDS011;21818;51.078;12.108;2022-07-12T13:42:27;1.75;;;0.98;;
35699;SDS011;21818;51.078;12.108;2022-07-12T13:44:53;1.88;;;0.90;;
35699;SDS011;21818;51.078;12.108;2022-07-12T13:47:19;3.38;;;0.75;;
35699;SDS011;21818;51.078;12.108;2022-07-12T13:49:46;2.47;;;0.98;;
35699;SDS011;21818;51.078;12.108;2022-07-12T13:52:12;4.63;;;1.20;;
35699;SDS011;21818;51.078;12.108;2022-07-12T13:54:37;1.45;;;0.80;;
35699;SDS011;21818;51.078;12.108;2022-07-12T13:57:03;1.70;;;1.10;;
35699;SDS011;21818;51.078;12.108;2022-07-12T13:59:29;2.53;;;1.20;;
35699;SDS011;21818;51.078;12.108;2022-07-12T14:01:55;2.65;;;0.82;;
35699;SDS011;21818;51.078;12.108;2022-07-12T14:04:20;1.80;;;0.98;;
35699;SDS011;21818;51.078;12.108;2022-07-12T14:06:46;2.72;;;0.93;;
35699;SDS011;21818;51.078;12.108;2022-07-12T14:09:14;2.22;;;1.02;;
35699;SDS011;21818;51.078;12.108;2022-07-12T14:11:40;1.90;;;0.77;;
35699;SDS011;21818;51.078;12.108;2022-07-12T14:14:05;1.88;;;1.00;;
35699;SDS011;21818;51.078;12.108;2022-07-12T14:16:31;1.73;;;0.90;;
35699;SDS011;21818;51.078;12.108;2022-07-12T14:18:57;1.65;;;0.90;;
35699;SDS011;21818;51.078;12.108;2022-07-12T14:21:23;2.92;;;1.38;;
35699;SDS011;21818;51.078;12.108;2022-07-12T14:23:49;3.53;;;0.98;;
35699;SDS011;21818;51.078;12.108;2022-07-12T14:26:14;1.42;;;0.90;;
35699;SDS011;21818;51.078;12.108;2022-07-12T14:28:40;2.63;;;0.70;;
35699;SDS011;21818;51.078;12.108;2022-07-12T14:31:05;3.97;;;1.08;;
35699;SDS011;21818;51.078;12.108;2022-07-12T14:33:31;1.95;;;1.00;;
35699;SDS011;21818;51.078;12.108;2022-07-12T14:35:57;1.67;;;0.98;;
35699;SDS011;21818;51.078;12.108;2022-07-12T14:38:22;1.80;;;1.02;;
35699;SDS011;21818;51.078;12.108;2022-07-12T14:40:48;2.70;;;0.88;;
35699;SDS011;21818;51.078;12.108;2022-07-12T14:43:14;1.10;;;0.60;;
35699;SDS011;21818;51.078;12.108;2022-07-12T14:45:40;3.50;;;1.15;;
35699;SDS011;21818;51.078;12.108;2022-07-12T14:48:07;2.45;;;0.88;;
35699;SDS011;21818;51.078;12.108;2022-07-12T14:50:33;2.28;;;1.10;;
35699;SDS011;21818;51.078;12.108;2022-07-12T14:52:59;2.65;;;1.00;;
35699;SDS011;21818;51.078;12.108;2022-07-12T14:55:24;1.10;;;0.75;;
35699;SDS011;21818;51.078;12.108;2022-07-12T14:57:50;2.55;;;1.05;;
35699;SDS011;21818;51.078;12.108;2022-07-12T15:00:15;2.53;;;0.98;;